| Date | Time | Temp. (oF) | Dew Point (oF) | Rel. Hum. (%) | Press. (in.) | Wind Dir. | Wind Speed (mph) | Hourly Rainfall (in.) |
|
|---|---|---|---|---|---|---|---|---|---|
| 1 | 04/22 | 00:00 | 42 | 39 | 91 | 29.99 | ESE | 2 | 0.00 |
| 2 | 04/21 | 23:00 | 42 | 39 | 91 | 29.98 | E | 2 | 0.00 |
| 3 | 04/21 | 22:00 | 42 | 39 | 90 | 30.00 | ENE | 7 | 0.00 |
| 4 | 04/21 | 21:00 | 42 | 40 | 94 | 30.00 | NE | 3 | 0.00 |
| 5 | 04/21 | 20:00 | 42 | 40 | 95 | 30.02 | NW | 4 | 0.00 |
| 6 | 04/21 | 19:00 | 43 | 41 | 96 | 30.00 | NW | 1 | 0.00 |
| 7 | 04/21 | 18:00 | 42 | 40 | 95 | 30.00 | NE | 2 | 0.00 |
| 8 | 04/21 | 17:00 | 42 | 40 | 96 | 30.02 | S | 1 | 0.01 |
| 9 | 04/21 | 16:00 | 42 | 40 | 93 | 30.05 | SE | 1 | 0.06 |
| 10 | 04/21 | 15:00 | 44 | 38 | 80 | 30.08 | N | 9 | 0.02 |
| 11 | 04/21 | 14:00 | 47 | 35 | 63 | 30.07 | NNW | 4 | 0.00 |
| 12 | 04/21 | 13:00 | 48 | 33 | 58 | 30.05 | N | 5 | 0.00 |
| 13 | 04/21 | 12:00 | 49 | 34 | 57 | 30.05 | N | 9 | 0.00 |
| 14 | 04/21 | 11:00 | 50 | 34 | 55 | 30.05 | NE | 8 | 0.00 |
| 15 | 04/21 | 10:00 | 51 | 38 | 62 | 30.05 | NNE | 5 | 0.00 |
| 16 | 04/21 | 09:00 | 51 | 34 | 53 | 30.04 | NNE | 6 | 0.00 |
| 17 | 04/21 | 08:00 | 51 | 35 | 55 | 30.04 | N | 8 | 0.00 |
| 18 | 04/21 | 07:00 | 51 | 37 | 60 | 30.03 | NNE | 5 | 0.00 |
| 19 | 04/21 | 06:00 | 52 | 39 | 62 | 30.00 | NNW | 3 | 0.00 |
| 20 | 04/21 | 05:00 | 53 | 39 | 59 | 29.98 | NNE | 10 | 0.00 |
| 21 | 04/21 | 04:00 | 54 | 40 | 60 | 29.98 | WNW | 7 | 0.00 |
| 22 | 04/21 | 03:00 | 55 | 45 | 71 | 29.95 | NW | 3 | 0.00 |
| 23 | 04/21 | 02:00 | 56 | 45 | 68 | 29.95 | NNE | 6 | 0.00 |
| 24 | 04/21 | 01:00 | 57 | 50 | 80 | 29.97 | NNE | 5 | 0.00 |